Latest Coastal Weather Observations for Tewantin

IDQ60701

Issued at 3:31 am EST Sunday 17 February 2019 (issued every 10 minutes, with the page automatically refreshed every 10 minutes)

About coastal observations | Map of coastal stations | Coastal observations for QLD | Marine services | Other Formats
Station Details ID: 040908 Name: TEWANTIN RSL PARK Lat: -26.39 Lon: 153.04 Height: 6.4 m
Data from the previous 72 hours. | See also: Recent months at Tewantin
Date/Time
EST
Wind Sea
Height
m
Swell Vis
km
Cloud Weather Temp
°C
Press
hPa
Rain since
9am
mm
Dir  Spd
kts
Gust
kts
Height
m
Period
s
Dir
17/03:30am SSE 5 8 - - - - - - - 24.0 1012.3 0.0
17/03:00am SSE 6 11 - - - - - - - 24.3 1012.3 0.0
17/02:30am SE 7 13 - - - - - - - 24.7 1012.7 0.0
17/02:00am SSE 7 14 - - - - - - - 24.8 1013.0 0.0
17/01:30am SE 8 13 - - - - - - - 24.9 1013.3 0.0
17/01:00am SE 8 14 - - - - - - - 25.0 1013.7 0.0
17/12:30am SE 8 13 - - - - - - - 25.0 1014.1 0.0
17/12:00am ESE 10 16 - - - - - - - 24.4 1014.6 0.0
 
Date/Time
EST
Wind Sea
Height
m
Swell Vis
km
Cloud Weather Temp
°C
Press
hPa
Rain since
9am
mm
Dir  Spd
kts
Gust
kts
Height
m
Period
s
Dir
16/11:30pm ESE 10 15 - - - - - - - 24.8 1015.0 0.0
16/11:00pm ESE 9 16 - - - - - - - 25.0 1015.2 0.0
16/10:30pm SE 7 15 - - - - - - - 25.2 1015.4 0.0
16/10:00pm SE 8 15 - - - - - - - 25.5 1015.5 0.0
16/09:30pm SSE 7 12 - - - - - - - 25.0 1015.7 0.0
16/09:00pm SSE 8 14 - - - - - - - 24.1 1015.7 0.0
16/08:30pm SE 9 17 - - - - - - - 24.4 1015.5 0.0
16/08:00pm SE 9 15 - - - - - - - 25.6 1015.3 0.0
16/07:30pm SE 8 14 - - - - - - - 25.6 1015.1 0.0
16/07:00pm SSE 7 13 - - - - - - - 25.6 1014.8 0.0
16/06:30pm SE 9 16 - - - - - - - 25.7 1014.5 0.0
16/06:00pm SE 10 16 - - - - - - - 25.8 1014.2 0.0
16/05:30pm SSE 9 15 - - - - - - - 26.1 1014.1 0.0
16/05:00pm SE 8 15 - - - - - - - 26.3 1014.1 0.0
16/04:30pm SSE 10 17 - - - - - - - 26.7 1014.0 0.0
16/04:00pm SE 12 19 - - - - - - - 26.8 1014.0 0.0
16/03:30pm SE 9 16 - - - - - - - 27.3 1014.1 0.0
16/03:00pm SE 12 20 - - - - - - - 27.6 1014.3 0.0
16/02:30pm SE 11 17 - - - - - - - 27.9 1014.6 0.0
16/02:00pm SSE 10 17 - - - - - - - 27.9 1015.0 0.0
16/01:30pm SE 11 19 - - - - - - - 27.2 1015.3 0.0
16/01:00pm SE 11 20 - - - - - - - 27.7 1015.6 0.0
16/12:30pm SSE 12 19 - - - - - - - 27.5 1015.8 0.0
16/12:00pm SSE 12 21 - - - - - - - 28.0 1016.2 0.0
16/11:30am SSE 13 23 - - - - - - - 28.1 1016.5 0.0
16/11:00am SSE 12 19 - - - - - - - 26.9 1016.8 0.0
16/10:30am SSE 10 21 - - - - - - - 27.4 1017.1 0.0
16/10:00am SSE 11 19 - - - - - - - 27.7 1017.2 0.0
16/09:30am SE 13 25 - - - - - - - 27.1 1017.2 0.0
16/09:00am SE 13 23 - - - - - - - 26.3 1017.0 0.6
16/08:30am ESE 14 21 - - - - - - - 26.0 1016.9 0.6
16/08:00am ESE 15 22 - - - - - - - 26.1 1016.6 0.6
16/07:30am S 9 15 - - - - - - - 25.4 1016.6 0.6
16/07:00am S 8 12 - - - - - - - 23.4 1016.5 0.6
16/06:30am S 7 10 - - - - - - - 22.3 1016.2 0.6
16/06:00am S 6 11 - - - - - - - 22.4 1016.1 0.6
16/05:30am SSW 7 12 - - - - - - - 22.5 1015.9 0.6
16/05:00am S 8 11 - - - - - - - 23.2 1015.8 0.6
16/04:30am S 7 13 - - - - - - - 23.2 1015.5 0.6
16/04:00am S 7 11 - - - - - - - 22.8 1015.4 0.6
16/03:30am S 7 10 - - - - - - - 22.9 1015.3 0.6
16/03:00am SSE 9 18 - - - - - - - 24.9 1015.2 0.6
16/02:30am SSE 7 15 - - - - - - - 24.7 1015.5 0.6
16/02:00am SSE 9 17 - - - - - - - 24.9 1015.7 0.6
16/01:30am SSE 9 17 - - - - - - - 25.1 1015.9 0.6
16/01:00am SSE 11 19 - - - - - - - 25.2 1016.2 0.6
16/12:30am SSE 11 18 - - - - - - - 25.2 1016.5 0.6
16/12:00am SSE 9 15 - - - - - - Recent precip. 25.0 1016.9 0.6
 
Date/Time
EST
Wind Sea
Height
m
Swell Vis
km
Cloud Weather Temp
°C
Press
hPa
Rain since
9am
mm
Dir  Spd
kts
Gust
kts
Height
m
Period
s
Dir
15/11:30pm SSE 10 16 - - - - - - - 24.2 1017.1 0.6
15/11:00pm SSE 8 15 - - - - - - - 25.1 1017.4 0.2
15/10:30pm SSE 9 17 - - - - - - - 25.2 1017.6 0.2
15/10:00pm SSE 10 15 - - - - - - - 25.1 1017.8 0.2
15/09:30pm SSE 11 17 - - - - - - - 24.9 1017.9 0.2
15/09:00pm SSE 13 23 - - - - - - - 24.0 1017.9 0.2
15/08:30pm SSE 10 18 - - - - - - - 25.6 1017.8 0.2
15/08:00pm SSE 12 20 - - - - - - - 25.1 1017.4 0.2
15/07:30pm SSE 11 22 - - - - - - - 25.6 1017.1 0.2
15/07:00pm SSE 10 19 - - - - - - - 25.7 1016.9 0.2
15/06:30pm SSE 11 17 - - - - - - - 25.7 1016.7 0.2
15/06:00pm SSE 10 18 - - - - - - - 25.9 1016.4 0.2
15/05:30pm SSE 11 22 - - - - - - - 26.1 1016.2 0.2
15/05:00pm SSE 11 17 - - - - - - - 26.2 1015.9 0.2
15/04:30pm SSE 11 23 - - - - - - - 26.2 1015.8 0.2
15/04:00pm SSE 10 18 - - - - - - - 26.6 1015.8 0.2
15/03:30pm SE 11 18 - - - - - - - 26.5 1015.8 0.2
15/03:00pm SSE 11 19 - - - - - - - 26.5 1015.8 0.2
15/02:30pm SSE 10 18 - - - - - - - 26.9 1016.0 0.2
15/02:00pm SSE 14 25 - - - - - - - 27.1 1016.2 0.2
15/01:30pm SSE 12 23 - - - - - - - 27.7 1016.4 0.2
15/01:09pm SSE 15 27 - - - - - - - 27.7 1016.5 0.2
15/01:00pm SSE 13 23 - - - - - - - 28.2 1016.6 0.2
15/12:30pm SSE 15 26 - - - - - - - 27.9 1016.8 0.2
15/12:24pm SSE 15 26 - - - - - - - 27.5 1016.8 0.2
15/12:00pm SSE 13 19 - - - - - - - 27.7 1016.9 0.2
15/11:30am SSE 12 20 - - - - - - - 27.8 1017.3 0.2
15/11:00am SSE 12 21 - - - - - - - 27.7 1017.7 0.2
15/10:34am SSE 15 25 - - - - - - - 27.1 1017.8 0.2
15/10:30am SSE 13 25 - - - - - - - 26.8 1017.8 0.2
15/10:15am SSE 15 26 - - - - - - - 26.8 1017.9 0.2
15/10:00am SSE 12 23 - - - - - - - 27.4 1017.9 0.2
15/09:30am SSE 11 18 - - - - - - - 26.7 1018.0 0.0
15/09:00am SSE 9 19 - - - - - - - 26.7 1017.8 4.4
15/08:30am SSE 11 19 - - - - - - - 26.3 1017.8 4.4
15/08:00am SSE 12 20 - - - - - - - 26.3 1017.4 4.4
15/07:30am SSE 11 22 - - - - - - - 25.5 1017.2 4.4
15/07:00am SSE 11 19 - - - - - - - 25.4 1016.8 4.4
15/06:30am SSE 12 22 - - - - - - - 25.3 1016.6 4.4
15/06:00am SSE 11 21 - - - - - - - 25.4 1016.2 4.4
15/05:30am SSE 11 19 - - - - - - - 25.3 1015.9 4.4
15/05:00am SSE 11 17 - - - - - - - 25.2 1015.5 4.4
15/04:30am SSE 13 25 - - - - - - - 25.1 1015.2 4.4
15/04:00am SSE 11 21 - - - - - - - 25.2 1015.2 4.4
15/03:30am SSE 11 21 - - - - - - - 25.1 1015.2 4.4
15/03:00am SSE 10 20 - - - - - - - 24.8 1015.2 4.4
15/02:30am SSE 10 18 - - - - - - - 24.6 1015.1 4.4
15/02:00am SSE 11 19 - - - - - - - 24.4 1015.2 4.4
15/01:30am SSE 9 17 - - - - - - - 24.2 1015.6 4.4
15/01:00am SSE 11 20 - - - - - - - 23.5 1015.7 4.4
15/12:30am SSE 9 16 - - - - - - - 23.2 1016.0 4.4
15/12:00am SSE 9 16 - - - - - - Rain 23.2 1016.0 4.0
 
Date/Time
EST
Wind Sea
Height
m
Swell Vis
km
Cloud Weather Temp
°C
Press
hPa
Rain since
9am
mm
Dir  Spd
kts
Gust
kts
Height
m
Period
s
Dir
14/11:30pm SSE 10 20 - - - - - - - 24.0 1015.9 2.6
14/11:00pm SSE 11 21 - - - - - - - 24.1 1015.7 2.2
14/10:30pm SSE 9 16 - - - - - - - 23.6 1015.9 1.6
14/10:00pm SSE 9 14 - - - - - - - 23.8 1016.0 0.8
14/09:30pm SSE 12 20 - - - - - - - 24.1 1015.7 0.0
14/09:00pm SSE 11 21 - - - - - - - 24.9 1015.8 0.0
14/08:30pm SSE 13 22 - - - - - - - 24.7 1015.4 0.0
14/08:00pm SSE 15 26 - - - - - - - 25.4 1015.1 0.0
14/07:55pm SSE 15 26 - - - - - - - 25.4 1015.0 0.0
14/07:30pm SSE 14 24 - - - - - - - 25.4 1014.8 0.0
14/07:00pm SSE 13 23 - - - - - - - 25.5 1014.2 0.0
14/06:30pm SSE 12 21 - - - - - - - 25.6 1013.6 0.0
14/06:00pm SSE 12 23 - - - - - - - 25.8 1013.2 0.0
14/05:30pm SSE 11 19 - - - - - - - 26.0 1012.8 0.0
14/05:00pm SSE 12 22 - - - - - - - 26.8 1012.2 0.0
14/04:47pm SSE 15 25 - - - - - - - 26.8 1012.1 0.0
14/04:30pm SSE 13 22 - - - - - - - 27.0 1012.0 0.0
14/04:14pm S 15 25 - - - - - - - 27.4 1011.9 0.0
14/04:00pm SSE 11 19 - - - - - - - 27.4 1011.9 0.0
14/03:30pm SSE 13 23 - - - - - - - 27.6 1011.8 0.0
14/03:00pm SSE 12 21 - - - - - - - 28.6 1011.5 0.0
14/02:30pm SSE 11 22 - - - - - - - 29.3 1011.4 0.0
14/02:00pm SSE 12 21 - - - - - - - 29.4 1011.3 0.0
14/01:30pm SSE 12 20 - - - - - - - 29.9 1011.4 0.0
14/01:00pm SE 11 20 - - - - - - - 29.3 1011.3 0.0
14/12:30pm SSE 12 21 - - - - - - - 29.9 1011.5 0.0
14/12:00pm SSE 11 18 - - - - - - - 29.2 1011.5 0.0
14/11:30am SE 11 19 - - - - - - - 27.8 1011.8 0.0
14/11:00am SSE 11 18 - - - - - - - 28.6 1011.8 0.0
14/10:30am SSE 12 23 - - - - - - - 28.9 1011.7 0.0
14/10:00am SE 10 17 - - - - - - - 28.8 1011.5 0.0
14/09:30am SSE 10 20 - - - - - - - 27.6 1011.7 0.0
14/09:00am SSE 9 17 - - - - - - - 27.9 1011.6 0.0
14/08:30am SSE 9 17 - - - - - - - 26.7 1011.4 0.0
14/08:00am SSE 9 19 - - - - - - - 26.4 1011.0 0.0
14/07:30am SSE 9 15 - - - - - - - 26.3 1010.5 0.0
14/07:00am SSE 9 13 - - - - - - - 26.3 1009.9 0.0
14/06:30am S 7 12 - - - - - - - 25.9 1009.4 0.0
14/06:00am S 6 10 - - - - - - - 25.9 1009.0 0.0
14/05:30am S 5 8 - - - - - - - 26.0 1008.5 0.0
14/05:00am SSW 3 9 - - - - - - - 25.8 1008.1 0.0
14/04:30am W 1 4 - - - - - - - 25.1 1007.5 0.0
14/04:00am WNW 3 5 - - - - - - - 25.1 1007.0 0.0

Other Formats:

Comma delimited format used in spreadsheet applications
http://www.bom.gov.au/fwo/IDQ60701/IDQ60701.94570.axf

JavaScript Object Notation format (JSON) in row-major order
http://www.bom.gov.au/fwo/IDQ60701/IDQ60701.94570.json